• Join FlightAware (Why Join?)
  • Login
  • US Flag 
04:15AM EDT


 

Airport Tracker/Info


-or-


 

Live Flight TrackerFlight Track Log ✈ UAL4295 ✈ 12-Apr-2013 ✈ KEWR - KMCI

Flight Track Log - Related Links

Times and Time Zones

All times are in EDT time to prevent confusion due to time zone crossing. See the UAL4295 flight status page for this flight to view local times or setup timezone preferences in your user account.

Time Position Orientation Groundspeed Altitude Reporting Facility
EDT Latitude Longitude Course Direction KTS MPH feet Rate Location/Type
09:39PM 40.7000 -74.1667 14° North 149 171 600  Level New York TRACON
09:40PM 40.7500 -74.1500 14° North 203 234 2,100 2,100 Climbing New York TRACON
09:41PM 40.7667 -74.2167 288° West 242 278 4,600 2,580 Climbing New York TRACON
09:42PM 40.7833 -74.3000 285° West 253 291 7,100 2,760 Climbing New York TRACON
09:43PM 40.8167 -74.4167 291° West 259 298 10,400 1,800 Climbing New York TRACON
09:45PM 40.8200 -74.6100 271° West 294 338 13,000 1,500 Climbing New York Center
09:46PM 40.8158 -74.7358 268° West 305 351 15,100 1,980 Climbing New York Center
09:47PM 40.8147 -74.8344 269° West 305 351 17,000 1,800 Climbing New York Center
09:48PM 40.8086 -74.9439 281° West 310 357 18,700 1,620 Climbing New York Center
09:49PM 40.7817 -75.0572 253° West 305 351 20,300 1,500 Climbing New York Center
09:50PM 40.7508 -75.1594 248° West 300 345 21,800 1,440 Climbing New York Center
09:51PM 40.7197 -75.2642 249° West 305 351 23,200 1,440 Climbing New York Center
09:52PM 40.6886 -75.3689 249° West 305 351 24,700 1,440 Climbing New York Center
09:53PM 40.6575 -75.4736 249° West 310 357 26,200 1,440 Climbing New York Center
09:54PM 40.6264 -75.5753 248° West 304 350 27,600 1,440 Climbing New York Center
09:55PM 40.5972 -75.6744 249° West 304 350 29,100 1,200 Climbing New York Center
09:56PM 40.5683 -75.7706 248° West 304 350 30,100 960 Climbing New York Center
09:57PM 40.5389 -75.8694 249° West 304 350 31,100 960 Climbing New York Center
09:58PM 40.5056 -75.9656 246° West 310 357 32,000 900 Climbing New York Center
09:59PM 40.4742 -76.0639 247° West 310 357 33,000 900 Climbing New York Center
10:00PM 40.4425 -76.1681 248° West 305 351 33,900 900 Climbing New York Center
10:01PM 40.4106 -76.2692 247° West 305 351 34,900 960 Climbing New York Center
10:02PM 40.3808 -76.3675 248° West 305 351 35,900 540 Climbing New York Center
10:03PM 40.3511 -76.4658 248° West 305 351 36,000  Climbing New York Center
10:04PM 40.3128 -76.5689 244° Southwest 311 358 36,000  Level New York Center
10:05PM 40.2703 -76.6714 242° Southwest 316 364 36,000  Level New York Center
10:06PM 40.2250 -76.7844 242° Southwest 328 377 36,000  Level New York Center
10:07PM 40.1797 -76.8947 242° Southwest 342 394 36,000  Level New York Center
10:08PM 40.1333 -77.0211 244° Southwest 353 406 36,000  Level New York Center
10:09PM 40.1081 -77.1464 255° West 353 406 36,000  Level New York Center
10:10PM 40.1072 -77.2739 270° West 353 406 36,000  Level New York Center
10:11PM 40.1044 -77.4014 268° West 353 406 36,000  Level New York Center
10:13PM 40.1036 -77.6217 270° West 332 382 36,000  Level Cleveland Center
10:14PM 40.1028 -77.7467 270° West 344 396 36,000  Level Cleveland Center
10:15PM 40.0994 -77.8717 268° West 349 402 36,000  Level Cleveland Center
10:16PM 40.0944 -78.0075 267° West 344 396 36,000  Level Cleveland Center
10:17PM 40.0908 -78.1353 268° West 349 402 36,000  Level Cleveland Center
10:18PM 40.0914 -78.2572 270° West 349 402 36,000  Level Cleveland Center
10:19PM 40.0875 -78.3822 268° West 349 402 36,000  Level Cleveland Center
10:20PM 40.0858 -78.5044 269° West 349 402 36,000  Level Cleveland Center
10:21PM 40.0839 -78.6294 269° West 349 402 36,000  Level Cleveland Center
10:22PM 40.0817 -78.7542 269° West 349 402 36,000  Level Cleveland Center
10:23PM 40.0794 -78.8792 269° West 349 402 36,000  Level Cleveland Center
10:24PM 40.0750 -79.0067 267° West 349 402 36,000  Level Cleveland Center
10:25PM 40.0706 -79.1317 267° West 349 402 36,000  Level Cleveland Center
10:26PM 40.0678 -79.2592 268° West 349 402 36,000  Level Cleveland Center
10:27PM 40.0672 -79.3894 270° West 349 402 36,000  Level Cleveland Center
10:28PM 40.0642 -79.5197 268° West 349 402 36,000  Level Cleveland Center
10:29PM 40.0592 -79.6472 267° West 354 407 36,000  Level Cleveland Center
10:30PM 40.0561 -79.7803 268° West 359 413 36,000  Level Cleveland Center
10:31PM 40.0528 -79.9106 268° West 365 420 36,000  Level Cleveland Center
10:32PM 40.0492 -80.0406 268° West 365 420 36,000  Level Cleveland Center
10:33PM 40.0436 -80.1736 267° West 365 420 36,000  Level Cleveland Center
10:34PM 40.0397 -80.3011 268° West 365 420 36,000  Level Cleveland Center
10:35PM 40.0358 -80.4339 268° West 365 420 36,000  Level Cleveland Center
10:36PM 40.0297 -80.5614 266° West 365 420 36,000  Level Cleveland Center
10:37PM 40.0256 -80.6917 268° West 365 420 36,000  Level Cleveland Center
10:38PM 40.0189 -80.8269 266° West 365 420 36,000  Level Cleveland Center
10:39PM 40.0186 -80.9572 270° West 365 420 36,000  Level Cleveland Center
10:41PM 40.0103 -81.2200 268° West 362 417 36,000  Level Indianapolis Center
10:42PM 40.0083 -81.3542 269° West 364 419 36,000  Level Indianapolis Center
10:43PM 40.0058 -81.4861 269° West 361 415 36,000  Level Indianapolis Center
10:44PM 40.0033 -81.6183 269° West 362 417 36,000  Level Indianapolis Center
10:45PM 40.0011 -81.7511 269° West 362 417 36,000  Level Indianapolis Center
10:46PM 39.9972 -81.8781 268° West 362 417 36,000  Level Indianapolis Center
10:47PM 39.9933 -82.0333 268° West 364 419 36,000  Level Indianapolis Center
10:48PM 39.9914 -82.1650 269° West 363 418 36,000  Level Indianapolis Center
10:49PM 39.9883 -82.2992 268° West 365 420 36,000  Level Indianapolis Center
10:50PM 39.9836 -82.4314 267° West 362 417 36,000  Level Indianapolis Center
10:51PM 39.9806 -82.5650 268° West 366 421 36,000  Level Indianapolis Center
10:52PM 39.9761 -82.6975 268° West 363 418 36,000  Level Indianapolis Center
10:53PM 39.9725 -82.8317 268° West 367 422 36,000  Level Indianapolis Center
10:54PM 39.9689 -82.9653 268° West 366 421 36,000  Level Indianapolis Center
10:55PM 39.9647 -83.0992 268° West 367 422 36,000  Level Indianapolis Center
10:56PM 39.9619 -83.2322 268° West 367 422 36,000  Level Indianapolis Center
10:57PM 39.9569 -83.3672 267° West 372 428 36,000  Level Indianapolis Center
10:58PM 39.9525 -83.4989 268° West 369 425 36,000  Level Indianapolis Center
10:59PM 39.9472 -83.6311 267° West 369 425 36,000 -60 Level Indianapolis Center
11:00PM 39.9428 -83.7647 268° West 369 425 35,900  Descending Indianapolis Center
11:01PM 39.9375 -83.9217 268° West 369 425 36,000  Climbing Indianapolis Center
11:03PM 39.9317 -84.0572 267° West 371 427 36,000  Level Indianapolis Center
11:04PM 39.9267 -84.1925 267° West 370 426 36,000  Level Indianapolis Center
11:05PM 39.9208 -84.3267 267° West 369 425 36,000  Level Indianapolis Center
11:06PM 39.9161 -84.4608 267° West 369 425 36,000  Level Indianapolis Center
11:07PM 39.9075 -84.5942 265° West 367 422 36,000  Level Indianapolis Center
11:08PM 39.9017 -84.7281 267° West 368 423 36,000  Level Indianapolis Center
11:09PM 39.8950 -84.8617 266° West 368 423 36,000  Level Indianapolis Center
11:10PM 39.8889 -84.9944 267° West 367 422 36,000  Level Indianapolis Center
11:11PM 39.8831 -85.1275 267° West 366 421 36,000  Level Indianapolis Center
11:12PM 39.8756 -85.2600 266° West 365 420 36,000  Level Indianapolis Center
11:13PM 39.8681 -85.3914 266° West 361 415 36,000  Level Indianapolis Center
11:14PM 39.8631 -85.5242 267° West 363 418 36,000  Level Indianapolis Center
11:15PM 39.8539 -85.6569 265° West 364 419 36,000  Level Indianapolis Center
11:16PM 39.8478 -85.7917 267° West 367 422 36,000  Level Indianapolis Center
11:17PM 39.8400 -85.9347 266° West 369 425 36,000  Level Indianapolis Center
11:18PM 39.8317 -86.0678 265° West 369 425 36,000  Level Indianapolis Center
11:19PM 39.8242 -86.2036 266° West 373 429 36,000  Level Indianapolis Center
11:20PM 39.8164 -86.3378 266° West 372 428 36,000  Level Indianapolis Center
11:21PM 39.8147 -86.4722 269° West 371 427 36,000  Level Indianapolis Center
11:22PM 39.8192 -86.6083 272° West 375 432 36,000  Level Indianapolis Center
11:23PM 39.8214 -86.7444 271° West 376 433 36,000  Level Indianapolis Center
11:24PM 39.8247 -86.8825 272° West 379 436 36,000  Level Indianapolis Center
11:25PM 39.8267 -87.0208 271° West 381 438 36,000  Level Indianapolis Center
11:26PM 39.8283 -87.1594 271° West 383 441 36,000  Level Indianapolis Center
11:27PM 39.8308 -87.3000 271° West 386 444 36,000  Level Indianapolis Center
11:28PM 39.8333 -87.4397 271° West 386 444 36,000  Level Indianapolis Center
11:29PM 39.8347 -87.6103 271° West 391 450 36,000  Level Indianapolis Center
11:30PM 39.8356 -87.7522 270° West 392 451 36,000  Level Indianapolis Center
11:31PM 39.8383 -87.8925 272° West 391 450 36,000  Level Indianapolis Center
11:32PM 39.8392 -88.0314 270° West 388 447 36,000  Level Indianapolis Center
11:33PM 39.8397 -88.1711 270° West 386 444 36,000  Level Indianapolis Center
11:34PM 39.8400 -88.2247 270° West 384 442 36,000  Level Kansas City Center
11:35PM 39.8397 -88.3642 270° West 384 442 36,000  Level Kansas City Center
11:36PM 39.8422 -88.5017 271° West 382 440 36,000  Level Kansas City Center
11:37PM 39.8408 -88.6433 269° West 387 445 36,000  Level Kansas City Center
11:38PM 39.8422 -88.7842 271° West 388 447 36,000  Level Kansas City Center
11:39PM 39.8419 -88.9533 270° West 389 448 36,000  Level Kansas City Center
11:40PM 39.8428 -89.0964 270° West 392 451 36,000  Level Kansas City Center
11:41PM 39.8417 -89.2392 269° West 393 452 36,000  Level Kansas City Center
11:42PM 39.8411 -89.3783 270° West 388 447 36,000  Level Kansas City Center
11:43PM 39.8408 -89.5167 270° West 383 441 36,000  Level Kansas City Center
11:44PM 39.8400 -89.6536 270° West 380 437 36,000  Level Kansas City Center
11:45PM 39.8408 -89.7914 270° West 379 436 36,000  Level Kansas City Center
11:46PM 39.8425 -89.9292 271° West 380 437 36,000  Level Kansas City Center
11:47PM 39.8439 -90.0686 271° West 383 441 36,000  Level Kansas City Center
11:48PM 39.8447 -90.2061 270° West 381 438 36,000  Level Kansas City Center
11:49PM 39.8450 -90.3456 270° West 382 440 36,000  Level Kansas City Center
11:50PM 39.8461 -90.4825 271° West 380 437 36,000  Level Kansas City Center
11:51PM 39.8472 -90.6197 271° West 379 436 36,000  Level Kansas City Center
11:52PM 39.8478 -90.7561 270° West 378 435 36,000  Level Kansas City Center
11:53PM 39.8478 -90.8936 270° West 378 435 36,000  Level Kansas City Center
11:54PM 39.8475 -91.0519 270° West 381 438 36,000  Level Kansas City Center
11:55PM 39.8483 -91.1883 270° West 380 437 36,000  Level Kansas City Center
11:56PM 39.8464 -91.3244 269° West 380 437 36,000  Level Kansas City Center
11:57PM 39.8331 -91.4603 263° West 379 436 36,000  Level Kansas City Center
11:58PM 39.8228 -91.5950 264° West 377 434 36,000  Level Kansas City Center
11:59PM 39.8139 -91.7286 265° West 376 433 36,000  Level Kansas City Center
12:00AM 39.8050 -91.8614 265° West 372 428 36,000  Level Kansas City Center
12:01AM 39.7944 -91.9950 264° West 371 427 36,000 -960 Level Kansas City Center
12:02AM 39.7831 -92.1292 264° West 380 437 34,100 -1,980 Descending Kansas City Center
12:03AM 39.7742 -92.2525 265° West 359 413 32,100 -1,920 Descending Kansas City Center
12:04AM 39.7639 -92.3728 264° West 343 395 30,200 -1,080 Descending Kansas City Center
12:05AM 39.7522 -92.5219 264° West 343 395 30,000 -120 Descending Kansas City Center
12:06AM 39.7408 -92.6475 263° West 349 402 30,000  Level Kansas City Center
12:07AM 39.7300 -92.7756 264° West 354 407 30,000 -60 Level Kansas City Center
12:08AM 39.7194 -92.9042 264° West 357 411 29,900 -1,080 Descending Kansas City Center
12:09AM 39.7078 -93.0294 263° West 354 407 27,900 -1,920 Descending Kansas City Center
12:10AM 39.6961 -93.1564 263° West 356 410 26,100 -1,680 Descending Kansas City Center
12:11AM 39.6853 -93.2858 264° West 360 414 24,600 -1,500 Descending Kansas City Center
12:12AM 39.6725 -93.4136 263° West 359 413 23,100 -1,500 Descending Kansas City Center
12:13AM 39.6606 -93.5383 263° West 356 410 21,600 -1,500 Descending Kansas City Center
12:14AM 39.6525 -93.6614 265° West 345 397 20,100 -1,500 Descending Kansas City Center
12:15AM 39.6392 -93.7881 262° West 335 386 18,600 -1,560 Descending Kansas City Center
12:16AM 39.6189 -93.9050 257° West 297 342 17,000 -1,620 Descending Kansas City Center
12:17AM 39.5772 -93.9811 235° Southwest 269 310 15,500 -1,500 Descending Kansas City Center
12:18AM 39.5383 -94.0589 237° Southwest 269 310 14,100 -1,560 Descending Kansas City Center
12:19AM 39.4936 -94.1458 236° Southwest 259 298 12,400 -1,020 Descending Kansas City Center
12:20AM 39.4597 -94.2158 238° Southwest 243 280 12,000 -240 Descending Kansas City Center
12:21AM 39.4228 -94.2869 236° Southwest 248 285 12,000 -60 Level Kansas City Center
12:22AM 39.3806 -94.3700 237° Southwest 247 284 11,900 -780 Descending Kansas City Center
12:23AM 39.3433 -94.4419 236° Southwest 251 289 10,400 -1,620 Descending Kansas City Center
12:24AM 39.3092 -94.5081 236° Southwest 235 270 8,700 -1,800 Descending Kansas City Center
12:25AM 39.2739 -94.5783 237° Southwest 211 243 6,900 -1,620 Descending Kansas City Center
12:26AM 39.2200 -94.6031 200° South 231 266 5,500 -960 Descending Kansas City Center
12:27AM 39.1594 -94.6139 188° South 228 262 5,000 -420 Descending Kansas City Center
12:28AM 39.1125 -94.6450 207° Southwest 221 254 4,700 -660 Descending Kansas City Center
12:29AM 39.1136 -94.7236 271° West 198 228 3,700 -900 Descending Kansas City Center
12:30AM 39.1483 -94.7606 320° Northwest 197 227 3,000 -360 Descending Kansas City Center
12:31AM 39.1969 -94.7575 North 181 208 3,000 -420 Level Kansas City Center
12:32AM 39.2414 -94.7453 12° North 140 161 2,200 -780 Descending Kansas City Center
12:33AM 39.2733 -94.7356 13° North 125 144 1,500 -600 Descending Kansas City Center
12:34AM 39.3100 -94.7244 13° North 123 142 1,000 -480 Descending Kansas City Center